| time (UTC) | temp F | wind direction | speed MPH | gust MPH | rain 1hr in | rain 24hr in | rain mn in | humidity % | barometer mb |
| 20260903091530 | 51 | 188 | 3.0 | 5.0 | 0.00 | 0.00 | 0.00 | 90 | 1012.6 |
| 20260903090025 | 51 | 175 | 2.0 | 4.0 | 0.00 | 0.00 | 0.00 | 89 | 1012.6 |
| 20260903084524 | 52 | 174 | 2.0 | 4.0 | 0.00 | 0.00 | 0.00 | 89 | 1012.7 |
| 20260903083019 | 52 | 174 | 1.0 | 3.0 | 0.00 | 0.00 | 0.00 | 89 | 1012.7 |
| 20260903081518 | 52 | 174 | 1.0 | 4.0 | 0.00 | 0.00 | 0.00 | 89 | 1012.8 |
| 20260903080016 | 52 | 171 | 3.0 | 5.0 | 0.00 | 0.00 | 0.00 | 88 | 1012.7 |
| 20260903074513 | 53 | 163 | 1.0 | 3.0 | 0.00 | 0.00 | 0.00 | 88 | 1012.6 |
| 20260903073011 | 53 | 161 | 3.0 | 5.0 | 0.00 | 0.00 | 0.00 | 88 | 1012.5 |
| 20260903071509 | 53 | 172 | 2.0 | 4.0 | 0.00 | 0.00 | 0.00 | 87 | 1012.6 |
| 20260903070005 | 53 | 175 | 0.0 | 0.0 | 0.00 | 0.00 | 0.00 | 86 | 1012.6 |
| 20260903064528 | 54 | 175 | 0.0 | 0.0 | 0.00 | 0.00 | 0.00 | 85 | 1012.6 |
| 20260903063019 | 54 | 175 | 0.0 | 0.0 | 0.00 | 0.00 | 0.00 | 85 | 1012.6 |
| 20260903061523 | 54 | 175 | 0.0 | 2.0 | 0.00 | 0.00 | 0.00 | 85 | 1012.5 |
| 20260903060019 | 55 | 175 | 0.0 | 2.0 | 0.00 | 0.00 | 0.00 | 83 | 1012.6 |
| 20260903054518 | 56 | 175 | 1.0 | 3.0 | 0.00 | 0.00 | 0.00 | 82 | 1012.8 |
| 20260903053017 | 56 | 175 | 0.0 | 0.0 | 0.00 | 0.00 | 0.00 | 81 | 1012.7 |
| 20260903051518 | 57 | 174 | 2.0 | 3.0 | 0.00 | 0.00 | 0.00 | 79 | 1012.7 |
| 20260903050017 | 58 | 174 | 0.0 | 3.0 | 0.00 | 0.00 | 0.00 | 78 | 1012.8 |
| 20260903044520 | 58 | 175 | 0.0 | 2.0 | 0.00 | 0.00 | 0.00 | 76 | 1012.8 |
| 20260903043018 | 59 | 175 | 2.0 | 3.0 | 0.00 | 0.00 | 0.00 | 75 | 1012.6 |
| 20260903041516 | 60 | 166 | 0.0 | 2.0 | 0.00 | 0.00 | 0.00 | 75 | 1012.4 |
| 20260903040015 | 61 | 232 | 1.0 | 2.0 | 0.00 | 0.00 | 0.00 | 73 | 1012.2 |
| 20260903034515 | 61 | 232 | 2.0 | 5.0 | 0.00 | 0.00 | 0.00 | 72 | 1012.0 |
| 20260903033016 | 62 | 221 | 3.0 | 7.0 | 0.00 | 0.00 | 0.00 | 71 | 1011.8 |
| 20260903031515 | 62 | 239 | 7.0 | 11.0 | 0.00 | 0.00 | 0.00 | 72 | 1011.8 |
| 20260903030014 | 63 | 209 | 7.0 | 13.0 | 0.00 | 0.00 | 0.00 | 70 | 1011.6 |
| 20260903024513 | 64 | 185 | 5.0 | 10.0 | 0.00 | 0.00 | 0.00 | 70 | 1011.4 |
| 20260903023013 | 65 | 212 | 3.0 | 6.0 | 0.00 | 0.00 | 0.00 | 67 | 1011.5 |
| 20260903021519 | 65 | 224 | 2.0 | 8.0 | 0.00 | 0.00 | 0.00 | 64 | 1011.5 |
| 20260903020016 | 67 | 209 | 6.0 | 14.0 | 0.00 | 0.00 | 0.00 | 63 | 1011.6 |
| 20260903014511 | 68 | 253 | 4.0 | 8.0 | 0.00 | 0.00 | 0.00 | 60 | 1011.7 |
| 20260903013012 | 69 | 209 | 1.0 | 8.0 | 0.00 | 0.00 | 0.00 | 57 | 1011.7 |
| 20260903011511 | 69 | 283 | 7.0 | 14.0 | 0.00 | 0.00 | 0.00 | 57 | 1011.6 |
| 20260903010009 | 70 | 225 | 4.0 | 9.0 | 0.00 | 0.00 | 0.00 | 55 | 1011.6 |
| 20260903004509 | 69 | 315 | 6.0 | 21.0 | 0.00 | 0.00 | 0.00 | 59 | 1011.5 |
| 20260903003009 | 70 | 272 | 6.0 | 20.0 | 0.00 | 0.00 | 0.00 | 60 | 1011.3 |
| 20260903001508 | 71 | 290 | 13.0 | 25.0 | 0.00 | 0.00 | 0.00 | 54 | 1011.2 |
| 20260903000007 | 72 | 236 | 12.0 | 23.0 | 0.00 | 0.00 | 0.00 | 55 | 1011.4 |
| 20260902234514 | 72 | 188 | 12.0 | 21.0 | 0.00 | 0.00 | 0.00 | 57 | 1011.4 |
| 20260902233003 | 71 | 261 | 14.0 | 24.0 | 0.00 | 0.00 | 0.00 | 59 | 1011.7 |
| 20260902231502 | 71 | 229 | 14.0 | 23.0 | 0.00 | 0.00 | 0.00 | 63 | 1011.7 |
| 20260902230001 | 71 | 229 | 7.0 | 19.0 | 0.00 | 0.00 | 0.00 | 65 | 1011.9 |
| 20260902224559 | 71 | 236 | 14.0 | 20.0 | 0.00 | 0.00 | 0.00 | 64 | 1012.1 |
| 20260902223105 | 72 | 223 | 12.0 | 20.0 | 0.00 | 0.00 | 0.00 | 63 | 1012.3 |
| 20260902221603 | 72 | 263 | 6.0 | 13.0 | 0.00 | 0.00 | 0.00 | 65 | 1012.4 |
| 20260902220055 | 72 | 275 | 7.0 | 13.0 | 0.00 | 0.00 | 0.00 | 65 | 1012.6 |
| 20260902214551 | 71 | 224 | 5.0 | 14.0 | 0.00 | 0.00 | 0.00 | 67 | 1012.8 |
| 20260902213050 | 70 | 217 | 9.0 | 14.0 | 0.00 | 0.00 | 0.00 | 68 | 1012.9 |
| 20260902211550 | 71 | 180 | 8.0 | 19.0 | 0.00 | 0.00 | 0.00 | 69 | 1013.0 |
| 20260902210048 | 71 | 192 | 6.0 | 14.0 | 0.00 | 0.00 | 0.00 | 70 | 1012.9 |
| 20260902204546 | 70 | 211 | 8.0 | 15.0 | 0.00 | 0.00 | 0.00 | 71 | 1013.0 |
| 20260902203046 | 70 | 256 | 8.0 | 14.0 | 0.00 | 0.00 | 0.00 | 73 | 1013.2 |
| 20260902201553 | 70 | 263 | 9.0 | 15.0 | 0.00 | 0.00 | 0.00 | 71 | 1013.3 |
| 20260902200041 | 69 | 231 | 7.0 | 15.0 | 0.00 | 0.00 | 0.00 | 74 | 1013.3 |
| 20260902194538 | 70 | 205 | 7.0 | 17.0 | 0.00 | 0.00 | 0.00 | 72 | 1013.5 |
| 20260902193037 | 69 | 225 | 7.0 | 11.0 | 0.00 | 0.00 | 0.00 | 71 | 1013.5 |
| 20260902191538 | 69 | 236 | 8.0 | 16.0 | 0.00 | 0.00 | 0.00 | 70 | 1013.5 |
| 20260902190035 | 68 | 232 | 7.0 | 18.0 | 0.00 | 0.00 | 0.00 | 71 | 1013.4 |
| 20260902184535 | 69 | 221 | 7.0 | 13.0 | 0.00 | 0.00 | 0.00 | 70 | 1013.5 |
| 20260902183032 | 69 | 165 | 7.0 | 14.0 | 0.00 | 0.00 | 0.00 | 71 | 1013.4 |
| 20260902181531 | 68 | 209 | 4.0 | 12.0 | 0.00 | 0.00 | 0.00 | 73 | 1013.4 |
| 20260902180126 | 68 | 162 | 8.0 | 13.0 | 0.00 | 0.00 | 0.00 | 72 | 1013.2 |
| 20260902174524 | 69 | 238 | 9.0 | 15.0 | 0.00 | 0.00 | 0.00 | 71 | 1013.3 |
| 20260902173038 | 68 | 246 | 11.0 | 20.0 | 0.00 | 0.00 | 0.00 | 74 | 1013.0 |
| 20260902171520 | 68 | 192 | 11.0 | 20.0 | 0.00 | 0.00 | 0.00 | 74 | 1013.0 |
| 20260902170017 | 68 | 250 | 10.0 | 18.0 | 0.00 | 0.00 | 0.00 | 73 | 1012.9 |
| 20260902164513 | 68 | 239 | 8.0 | 13.0 | 0.00 | 0.00 | 0.00 | 73 | 1013.2 |
| 20260902163010 | 66 | 205 | 9.0 | 22.0 | 0.00 | 0.00 | 0.00 | 73 | 1012.9 |
| 20260902161505 | 66 | 217 | 15.0 | 20.0 | 0.00 | 0.00 | 0.00 | 74 | 1012.9 |
| 20260902160002 | 65 | 223 | 12.0 | 21.0 | 0.00 | 0.00 | 0.00 | 75 | 1012.9 |
| 20260902154601 | 64 | 217 | 9.0 | 15.0 | 0.00 | 0.00 | 0.00 | 76 | 1013.2 |
| 20260902153058 | 64 | 238 | 13.0 | 19.0 | 0.00 | 0.00 | 0.00 | 75 | 1013.0 |
| 20260902151601 | 64 | 228 | 6.0 | 14.0 | 0.00 | 0.00 | 0.00 | 76 | 1012.9 |
| 20260902150048 | 62 | 205 | 6.0 | 16.0 | 0.00 | 0.00 | 0.00 | 80 | 1012.7 |
| 20260902144544 | 61 | 162 | 3.0 | 10.0 | 0.00 | 0.00 | 0.00 | 80 | 1012.6 |
| 20260902143045 | 60 | 225 | 4.0 | 11.0 | 0.00 | 0.00 | 0.00 | 82 | 1012.6 |
| 20260902141537 | 58 | 227 | 5.0 | 12.0 | 0.00 | 0.00 | 0.00 | 87 | 1012.5 |
| 20260902140038 | 57 | 168 | 1.0 | 4.0 | 0.00 | 0.00 | 0.00 | 88 | 1012.5 |
| 20260902134539 | 56 | 199 | 0.0 | 5.0 | 0.00 | 0.00 | 0.00 | 88 | 1012.4 |
| 20260902133043 | 56 | 118 | 3.0 | 6.0 | 0.00 | 0.00 | 0.00 | 89 | 1012.2 |
| 20260902131536 | 55 | 107 | 1.0 | 3.0 | 0.00 | 0.00 | 0.00 | 90 | 1012.3 |
| 20260902130032 | 55 | 110 | 2.0 | 4.0 | 0.00 | 0.00 | 0.00 | 90 | 1012.3 |
| 20260902124532 | 55 | 138 | 2.0 | 4.0 | 0.00 | 0.00 | 0.00 | 90 | 1012.3 |
| 20260902123032 | 55 | 203 | 0.0 | 2.0 | 0.00 | 0.00 | 0.00 | 90 | 1012.4 |
| 20260902121531 | 55 | 173 | 1.0 | 3.0 | 0.00 | 0.00 | 0.00 | 90 | 1012.3 |
| 20260902120037 | 55 | 153 | 2.0 | 5.0 | 0.00 | 0.00 | 0.00 | 90 | 1012.2 |
| 20260902114538 | 54 | 169 | 1.0 | 4.0 | 0.00 | 0.00 | 0.00 | 90 | 1012.3 |
| 20260902113029 | 54 | 188 | 3.0 | 4.0 | 0.00 | 0.00 | 0.00 | 90 | 1012.4 |
| 20260902111539 | 53 | 164 | 3.0 | 5.0 | 0.00 | 0.00 | 0.00 | 89 | 1012.6 |
| 20260902110049 | 54 | 158 | 3.0 | 6.0 | 0.00 | 0.00 | 0.00 | 89 | 1012.7 |
| 20260902104528 | 54 | 163 | 3.0 | 5.0 | 0.00 | 0.00 | 0.00 | 89 | 1012.7 |
| 20260902103022 | 54 | 209 | 1.0 | 3.0 | 0.00 | 0.00 | 0.00 | 88 | 1012.7 |
| 20260902101520 | 55 | 207 | 0.0 | 2.0 | 0.00 | 0.00 | 0.00 | 87 | 1012.5 |
| 20260902100018 | 55 | 207 | 0.0 | 3.0 | 0.00 | 0.00 | 0.00 | 86 | 1012.4 |
| 20260902094515 | 57 | 187 | 1.0 | 5.0 | 0.00 | 0.00 | 0.00 | 85 | 1012.4 |
| 20260902093015 | 57 | 175 | 2.0 | 7.0 | 0.00 | 0.00 | 0.00 | 87 | 1012.5 |